Pacific Pilot Two — CG2436 — position and weather

sailwx.info

Track history (hours):
 
Tides and Currents Weather Stations Pressure Air Temp Water Temp Dewpoint Dewpoint Depression Visibility Wind Speed Wind Dir Waves Ship Positions

Pacific Pilot Two

Last reported at 2014-Sep-30 15:33 UTC. Time now 2014-Sep-30 15:56 UTC.
Position N 48°25' W 123°23'.

MMSI: 316005175.

Date/timePositionNaut miles runAvg speedWind from/ knotsBaromVisibWave heightAir tempDewpointWater temp
2014-Sep-30 15:33N 48°25' W 123°23'0 0.0
2014-Sep-30 14:34N 48°25' W 123°23'0 0.0
2014-Sep-30 13:33N 48°25' W 123°23'0 0.0
2014-Sep-30 12:33N 48°25' W 123°23'0 0.0
2014-Sep-30 11:34N 48°25' W 123°23'0 0.0
2014-Sep-30 10:33N 48°25' W 123°23'0 0.0
2014-Sep-30 09:34N 48°25' W 123°23'0 0.0
2014-Sep-30 08:33N 48°25' W 123°23'0 0.0
2014-Sep-30 07:33N 48°25' W 123°23'0 0.0
2014-Sep-30 06:34N 48°25' W 123°23'0 0.0
2014-Sep-30 05:32N 48°25' W 123°23'0 0.0
2014-Sep-30 04:34N 48°25' W 123°23'0 0.0
2014-Sep-30 03:34N 48°25' W 123°23'0 0.0
2014-Sep-30 02:34N 48°25' W 123°23'0 0.0
2014-Sep-30 01:33N 48°25' W 123°23'0 0.0
2014-Sep-30 00:34N 48°25' W 123°23'0 0.0
2014-Sep-29 23:34N 48°25' W 123°23'0 0.0
2014-Sep-29 22:33N 48°25' W 123°23'0 0.0
2014-Sep-29 21:34N 48°25' W 123°23'0 0.0
2014-Sep-29 20:22N 48°25' W 123°23'0 0.5
2014-Sep-29 19:33N 48°25' W 123°24'0 0.3
2014-Sep-29 18:24N 48°25' W 123°23'0 0.4
2014-Sep-29 17:33N 48°25' W 123°24'2 2.4
2014-Sep-29 16:33N 48°22' W 123°24'3 2.5
2014-Sep-29 15:31N 48°25' W 123°23'0 0.0
2014-Sep-29 14:32N 48°25' W 123°23'0 0.0
2014-Sep-29 13:33N 48°25' W 123°23'4 4.2
2014-Sep-29 12:33N 48°21' W 123°24'4 4.2
2014-Sep-29 11:33N 48°25' W 123°23'2 2.2
2014-Sep-29 10:33N 48°23' W 123°21'2 2.3
2014-Sep-29 09:33N 48°25' W 123°24'0 0.3
2014-Sep-29 08:23N 48°25' W 123°23'0 0.0
2014-Sep-29 07:07N 48°25' W 123°23'2 3.8
2014-Sep-29 06:33N 48°23' W 123°22'2 2.2
2014-Sep-29 05:33N 48°25' W 123°24'0 0.3
2014-Sep-29 04:33N 48°25' W 123°23'0 0.1
2014-Sep-29 03:34N 48°25' W 123°23'0 0.1
2014-Sep-29 02:33N 48°25' W 123°23'0 0.0
2014-Sep-29 01:33N 48°25' W 123°23'0 0.0
2014-Sep-29 00:33N 48°25' W 123°23'0 0.0
2014-Sep-28 23:33N 48°25' W 123°23'0 0.0
2014-Sep-28 22:33N 48°25' W 123°23'0 0.0
2014-Sep-28 21:33N 48°25' W 123°23'0 0.0
2014-Sep-28 20:33N 48°25' W 123°23'0 0.0
2014-Sep-28 19:33N 48°25' W 123°23'0 0.0
2014-Sep-28 18:33N 48°25' W 123°23'0 0.0
2014-Sep-28 17:34N 48°25' W 123°23'0 0.0
2014-Sep-28 16:33N 48°25' W 123°23'0 0.0
2014-Sep-28 15:33N 48°25' W 123°23'0 0.0
2014-Sep-28 14:34N 48°25' W 123°23'0 0.0
2014-Sep-28 13:33N 48°25' W 123°23'0 0.0
2014-Sep-28 12:33N 48°25' W 123°23'0 0.0
2014-Sep-28 11:33N 48°25' W 123°23'0 0.0
2014-Sep-28 10:33N 48°25' W 123°23'0 0.0
2014-Sep-28 09:34N 48°25' W 123°23'0 0.0
2014-Sep-28 08:34N 48°25' W 123°23'0 0.0
2014-Sep-28 07:33N 48°25' W 123°23'0 0.0
2014-Sep-28 06:34N 48°25' W 123°23'0 0.0
2014-Sep-28 05:33N 48°25' W 123°23'0 0.0
2014-Sep-28 04:33N 48°25' W 123°23'0 0.0
2014-Sep-28 03:32N 48°25' W 123°23'0 0.0
2014-Sep-28 02:33N 48°25' W 123°23'0 0.0
2014-Sep-28 01:34N 48°25' W 123°23'0 0.0
2014-Sep-28 00:34N 48°25' W 123°23'0 0.0
2014-Sep-27 23:33N 48°25' W 123°23'0 0.0
2014-Sep-27 22:34N 48°25' W 123°23'0 0.0
2014-Sep-27 21:34N 48°25' W 123°23'0 0.0
2014-Sep-27 20:34N 48°25' W 123°23'0 0.0
2014-Sep-27 19:34N 48°25' W 123°23'0 0.0
2014-Sep-27 18:33N 48°25' W 123°23'0 0.0
2014-Sep-27 17:34N 48°25' W 123°23'0 0.0
2014-Sep-27 16:33N 48°25' W 123°23'0 0.0
2014-Sep-27 15:34N 48°25' W 123°23'0 0.0
2014-Sep-27 14:33N 48°25' W 123°23'0 0.0
2014-Sep-27 13:33N 48°25' W 123°23'0 0.0
2014-Sep-27 12:34N 48°25' W 123°23'0 0.0
2014-Sep-27 11:34N 48°25' W 123°23'0 0.0
2014-Sep-27 10:33N 48°25' W 123°23'0 0.0
2014-Sep-27 09:34N 48°25' W 123°23'0 0.0
2014-Sep-27 08:33N 48°25' W 123°23'0 0.0
2014-Sep-27 07:34N 48°25' W 123°23'0 0.0
2014-Sep-27 06:33N 48°25' W 123°23'0 0.0
2014-Sep-27 05:34N 48°25' W 123°23'0 0.0
2014-Sep-27 04:34N 48°25' W 123°23'0 0.0
2014-Sep-27 03:33N 48°25' W 123°23'0 0.0
2014-Sep-27 02:34N 48°25' W 123°23'0 0.0
2014-Sep-27 01:33N 48°25' W 123°23'0 0.0
2014-Sep-27 00:33N 48°25' W 123°23'0 0.0
2014-Sep-26 23:34N 48°25' W 123°23'0 0.0
2014-Sep-26 22:34N 48°25' W 123°23'0 0.0
2014-Sep-26 21:34N 48°25' W 123°23'0 0.0
2014-Sep-26 20:33N 48°25' W 123°23'0 0.0
2014-Sep-26 19:34N 48°25' W 123°23'0 0.0
2014-Sep-26 18:34N 48°25' W 123°23'0 0.0
2014-Sep-26 17:34N 48°25' W 123°23'0 0.0
2014-Sep-26 16:34N 48°25' W 123°23'0 0.0
2014-Sep-26 15:33N 48°25' W 123°23'0 0.0
2014-Sep-26 14:34N 48°25' W 123°23'0 0.0
2014-Sep-26 13:34N 48°25' W 123°23'0 0.0
2014-Sep-26 12:34N 48°25' W 123°23'0 0.0
2014-Sep-26 11:33N 48°25' W 123°23'0 0.0
2014-Sep-26 10:34N 48°25' W 123°23'0 0.0
2014-Sep-26 09:33N 48°25' W 123°23'0 0.0
2014-Sep-26 08:34N 48°25' W 123°23'0 0.0
2014-Sep-26 07:34N 48°25' W 123°23'0 0.0
2014-Sep-26 06:33N 48°25' W 123°23'0 0.0
2014-Sep-26 05:34N 48°25' W 123°23'0 0.0
2014-Sep-26 04:34N 48°25' W 123°23'0 0.0
2014-Sep-26 03:34N 48°25' W 123°23'0 0.0
2014-Sep-26 02:33N 48°25' W 123°23'0 0.0
2014-Sep-26 01:34N 48°25' W 123°23'0 0.0
2014-Sep-26 00:33N 48°25' W 123°23'0 0.0
2014-Sep-25 23:33N 48°25' W 123°23'0 0.0
2014-Sep-25 22:33N 48°25' W 123°23'0 0.0
2014-Sep-25 21:34N 48°25' W 123°23'0 0.0
2014-Sep-25 20:34N 48°25' W 123°23'0 0.0
2014-Sep-25 19:31N 48°25' W 123°23'0 0.0
2014-Sep-25 18:32N 48°25' W 123°23'0 0.0
2014-Sep-25 17:22N 48°25' W 123°23'0 0.0
2014-Sep-25 16:23N 48°25' W 123°23'0 0.0
2014-Sep-25 15:32N 48°25' W 123°23'0 0.4
2014-Sep-25 14:34N 48°25' W 123°23'2 2.3
2014-Sep-25 13:34N 48°22' W 123°22'2 1.9
2014-Sep-25 12:34N 48°24' W 123°23'1 0.8
2014-Sep-25 11:33N 48°25' W 123°23'0 0.0
2014-Sep-25 10:33N 48°25' W 123°23'0 0.0
2014-Sep-25 09:33N 48°25' W 123°23'0 0.0
2014-Sep-25 08:33N 48°25' W 123°23'0 0.0
2014-Sep-25 07:33N 48°25' W 123°23'0 0.0
2014-Sep-25 06:33N 48°25' W 123°23'0 0.0
2014-Sep-25 05:33N 48°25' W 123°23'0 0.0
2014-Sep-25 04:33N 48°25' W 123°23'0 0.0
2014-Sep-25 03:33N 48°25' W 123°23'0 0.0
2014-Sep-25 02:33N 48°25' W 123°23'0 0.0
2014-Sep-25 01:33N 48°25' W 123°23'0 0.0
2014-Sep-25 00:33N 48°25' W 123°23'0 0.0
2014-Sep-24 23:33N 48°25' W 123°23'0 0.0
2014-Sep-24 22:33N 48°25' W 123°23'0 0.0
2014-Sep-24 21:33N 48°25' W 123°23'0 0.0
2014-Sep-24 20:33N 48°25' W 123°23'0 0.0
2014-Sep-24 19:33N 48°25' W 123°23'0 0.0
2014-Sep-24 18:33N 48°25' W 123°23'1 0.6
2014-Sep-24 17:33N 48°25' W 123°23'1 0.6
2014-Sep-24 16:33N 48°25' W 123°23'0 0.0
2014-Sep-24 15:33N 48°25' W 123°23'0 0.0
2014-Sep-24 14:34N 48°25' W 123°23'0 0.0
2014-Sep-24 13:34N 48°25' W 123°23'0 0.0
2014-Sep-24 12:33N 48°25' W 123°23'0 0.0
2014-Sep-24 11:33N 48°25' W 123°23'0 0.0
2014-Sep-24 10:34N 48°25' W 123°23'0 0.0
2014-Sep-24 09:33N 48°25' W 123°23'0 0.0
2014-Sep-24 08:34N 48°25' W 123°23'0 0.0
2014-Sep-24 07:33N 48°25' W 123°23'2 2.1
2014-Sep-24 06:33N 48°23' W 123°23'2 2.0
2014-Sep-24 05:33N 48°25' W 123°23'0 0.0
2014-Sep-24 04:33N 48°25' W 123°23'0 0.0
2014-Sep-24 03:33N 48°25' W 123°23'0 0.4
2014-Sep-24 02:33N 48°25' W 123°24'0 0.4
2014-Sep-24 01:33N 48°25' W 123°23'0 0.0
2014-Sep-24 00:33N 48°25' W 123°23'0 0.0
2014-Sep-23 23:33N 48°25' W 123°23'0 0.0
2014-Sep-23 22:33N 48°25' W 123°23'0 0.0
2014-Sep-23 21:33N 48°25' W 123°23'2 2.0
2014-Sep-23 20:33N 48°23' W 123°22'2 2.0
2014-Sep-23 19:33N 48°25' W 123°23'2 1.7
2014-Sep-23 18:34N 48°23' W 123°22'2 1.7
2014-Sep-23 17:33N 48°25' W 123°23'0 0.0
2014-Sep-23 16:33N 48°25' W 123°23'0 0.0
2014-Sep-23 15:33N 48°25' W 123°23'0 0.0
2014-Sep-23 14:33N 48°25' W 123°23'0 0.0
2014-Sep-23 13:33N 48°25' W 123°23'0 0.0
2014-Sep-23 12:33N 48°25' W 123°23'0 0.0
2014-Sep-23 11:33N 48°25' W 123°23'0 0.0
2014-Sep-23 10:33N 48°25' W 123°23'2 2.0
2014-Sep-23 09:34N 48°23' W 123°23'2 2.0
2014-Sep-23 08:33N 48°25' W 123°23'0 0.0
2014-Sep-23 07:33N 48°25' W 123°23'0 0.0
2014-Sep-23 06:33N 48°25' W 123°23'1 1.4
2014-Sep-23 05:33N 48°24' W 123°22'1 1.4
2014-Sep-23 04:33N 48°25' W 123°23'0 0.0
2014-Sep-23 03:33N 48°25' W 123°23'2 2.0
2014-Sep-23 02:34N 48°23' W 123°23'1 1.3
2014-Sep-23 01:33N 48°24' W 123°23'1 0.6
2014-Sep-23 00:34N 48°25' W 123°24'0 0.4
2014-Sep-22 23:33N 48°25' W 123°23'0 0.0
2014-Sep-22 22:33N 48°25' W 123°23'0 0.0
2014-Sep-22 21:33N 48°25' W 123°23'0 0.0
2014-Sep-22 20:33N 48°25' W 123°23'0 0.0
2014-Sep-22 19:34N 48°25' W 123°23'0 0.0
2014-Sep-22 18:30N 48°25' W 123°23'0 0.0
2014-Sep-22 17:33N 48°25' W 123°23'0 0.0
2014-Sep-22 16:32N 48°25' W 123°23'0 0.0
2014-Sep-22 15:33N 48°25' W 123°23'0 0.0
2014-Sep-22 14:33N 48°25' W 123°23'0 0.0
2014-Sep-22 13:33N 48°25' W 123°23'0 0.0
2014-Sep-22 12:33N 48°25' W 123°23'0 0.0
2014-Sep-22 11:33N 48°25' W 123°23'0 0.0
2014-Sep-22 10:31N 48°25' W 123°23'0 0.0
2014-Sep-22 09:33N 48°25' W 123°23'0 0.0
2014-Sep-22 08:33N 48°25' W 123°23'0 0.0
2014-Sep-22 07:33N 48°25' W 123°23'0 0.0
2014-Sep-22 06:32N 48°25' W 123°23'0 0.0
2014-Sep-22 05:29N 48°25' W 123°23'0 0.0
2014-Sep-22 04:33N 48°25' W 123°23'0 0.0
2014-Sep-22 03:33N 48°25' W 123°23'0 0.0
2014-Sep-22 02:32N 48°25' W 123°23'0 0.0
2014-Sep-22 01:33N 48°25' W 123°23'0 0.0
2014-Sep-22 00:33N 48°25' W 123°23'0 0.0
2014-Sep-21 23:33N 48°25' W 123°23'0 0.0
2014-Sep-21 22:34N 48°25' W 123°23'0 0.0
2014-Sep-21 21:34N 48°25' W 123°23'0 0.0
2014-Sep-21 20:33N 48°25' W 123°23'0 0.0
2014-Sep-21 19:33N 48°25' W 123°23'0 0.0
2014-Sep-21 18:33N 48°25' W 123°23'0 0.0
2014-Sep-21 17:33N 48°25' W 123°23'0 0.0
2014-Sep-21 16:33N 48°25' W 123°23'0 0.0
2014-Sep-21 15:33N 48°25' W 123°23'0 0.0
2014-Sep-21 14:33N 48°25' W 123°23'0 0.0
2014-Sep-21 13:34N 48°25' W 123°23'0 0.0
2014-Sep-21 12:33N 48°25' W 123°23'0 0.0
2014-Sep-21 11:34N 48°25' W 123°23'0 0.0
2014-Sep-21 10:33N 48°25' W 123°23'0 0.0
2014-Sep-21 09:33N 48°25' W 123°23'0 0.0
2014-Sep-21 08:33N 48°25' W 123°23'0 0.0
2014-Sep-21 07:33N 48°25' W 123°23'0 0.0
2014-Sep-21 06:34N 48°25' W 123°23'0 0.0
2014-Sep-21 05:34N 48°25' W 123°23'0 0.0
2014-Sep-21 04:34N 48°25' W 123°23'0 0.0
2014-Sep-21 03:33N 48°25' W 123°23'0 0.0
2014-Sep-21 02:33N 48°25' W 123°23'0 0.0
2014-Sep-21 01:33N 48°25' W 123°23'0 0.0
2014-Sep-21 00:32N 48°25' W 123°23'0 0.0
2014-Sep-20 23:33N 48°25' W 123°23'0 0.0
2014-Sep-20 22:34N 48°25' W 123°23'0 0.0
2014-Sep-20 21:33N 48°25' W 123°23'0 0.0
2014-Sep-20 20:33N 48°25' W 123°23'0 0.0
2014-Sep-20 19:34N 48°25' W 123°23'0 0.0
2014-Sep-20 18:33N 48°25' W 123°23'0 0.0
2014-Sep-20 17:33N 48°25' W 123°23'0 0.0
2014-Sep-20 16:33N 48°25' W 123°23'0 0.0
2014-Sep-20 15:33N 48°25' W 123°23'  
Track history (hours):
 
Tides and Currents Weather Stations Pressure Air Temp Water Temp Dewpoint Dewpoint Depression Visibility Wind Speed Wind Dir Waves Ship Positions

Pacific Pilot Two

Last reported at 2014-Sep-30 15:33 UTC. Time now 2014-Sep-30 15:56 UTC.
Position N 48°25' W 123°23'.

MMSI: 316005175.

Date/timePositionNaut miles runAvg speedWind from/ knotsBaromVisibWave heightAir tempDewpointWater temp
2014-Sep-30 15:33N 48°25' W 123°23'0 0.0
2014-Sep-30 14:34N 48°25' W 123°23'0 0.0
2014-Sep-30 13:33N 48°25' W 123°23'0 0.0
2014-Sep-30 12:33N 48°25' W 123°23'0 0.0
2014-Sep-30 11:34N 48°25' W 123°23'0 0.0
2014-Sep-30 10:33N 48°25' W 123°23'0 0.0
2014-Sep-30 09:34N 48°25' W 123°23'0 0.0
2014-Sep-30 08:33N 48°25' W 123°23'0 0.0
2014-Sep-30 07:33N 48°25' W 123°23'0 0.0
2014-Sep-30 06:34N 48°25' W 123°23'0 0.0
2014-Sep-30 05:32N 48°25' W 123°23'0 0.0
2014-Sep-30 04:34N 48°25' W 123°23'0 0.0
2014-Sep-30 03:34N 48°25' W 123°23'0 0.0
2014-Sep-30 02:34N 48°25' W 123°23'0 0.0
2014-Sep-30 01:33N 48°25' W 123°23'0 0.0
2014-Sep-30 00:34N 48°25' W 123°23'0 0.0
2014-Sep-29 23:34N 48°25' W 123°23'0 0.0
2014-Sep-29 22:33N 48°25' W 123°23'0 0.0
2014-Sep-29 21:34N 48°25' W 123°23'0 0.0
2014-Sep-29 20:22N 48°25' W 123°23'0 0.5
2014-Sep-29 19:33N 48°25' W 123°24'0 0.3
2014-Sep-29 18:24N 48°25' W 123°23'0 0.4
2014-Sep-29 17:33N 48°25' W 123°24'2 2.4
2014-Sep-29 16:33N 48°22' W 123°24'3 2.5
2014-Sep-29 15:31N 48°25' W 123°23'0 0.0
2014-Sep-29 14:32N 48°25' W 123°23'0 0.0
2014-Sep-29 13:33N 48°25' W 123°23'4 4.2
2014-Sep-29 12:33N 48°21' W 123°24'4 4.2
2014-Sep-29 11:33N 48°25' W 123°23'2 2.2
2014-Sep-29 10:33N 48°23' W 123°21'2 2.3
2014-Sep-29 09:33N 48°25' W 123°24'0 0.3
2014-Sep-29 08:23N 48°25' W 123°23'0 0.0
2014-Sep-29 07:07N 48°25' W 123°23'2 3.8
2014-Sep-29 06:33N 48°23' W 123°22'2 2.2
2014-Sep-29 05:33N 48°25' W 123°24'0 0.3
2014-Sep-29 04:33N 48°25' W 123°23'0 0.1
2014-Sep-29 03:34N 48°25' W 123°23'0 0.1
2014-Sep-29 02:33N 48°25' W 123°23'0 0.0
2014-Sep-29 01:33N 48°25' W 123°23'0 0.0
2014-Sep-29 00:33N 48°25' W 123°23'0 0.0
2014-Sep-28 23:33N 48°25' W 123°23'0 0.0
2014-Sep-28 22:33N 48°25' W 123°23'0 0.0
2014-Sep-28 21:33N 48°25' W 123°23'0 0.0
2014-Sep-28 20:33N 48°25' W 123°23'0 0.0
2014-Sep-28 19:33N 48°25' W 123°23'0 0.0
2014-Sep-28 18:33N 48°25' W 123°23'0 0.0
2014-Sep-28 17:34N 48°25' W 123°23'0 0.0
2014-Sep-28 16:33N 48°25' W 123°23'0 0.0
2014-Sep-28 15:33N 48°25' W 123°23'0 0.0
2014-Sep-28 14:34N 48°25' W 123°23'0 0.0
2014-Sep-28 13:33N 48°25' W 123°23'0 0.0
2014-Sep-28 12:33N 48°25' W 123°23'0 0.0
2014-Sep-28 11:33N 48°25' W 123°23'0 0.0
2014-Sep-28 10:33N 48°25' W 123°23'0 0.0
2014-Sep-28 09:34N 48°25' W 123°23'0 0.0
2014-Sep-28 08:34N 48°25' W 123°23'0 0.0
2014-Sep-28 07:33N 48°25' W 123°23'0 0.0
2014-Sep-28 06:34N 48°25' W 123°23'0 0.0
2014-Sep-28 05:33N 48°25' W 123°23'0 0.0
2014-Sep-28 04:33N 48°25' W 123°23'0 0.0
2014-Sep-28 03:32N 48°25' W 123°23'0 0.0
2014-Sep-28 02:33N 48°25' W 123°23'0 0.0
2014-Sep-28 01:34N 48°25' W 123°23'0 0.0
2014-Sep-28 00:34N 48°25' W 123°23'0 0.0
2014-Sep-27 23:33N 48°25' W 123°23'0 0.0
2014-Sep-27 22:34N 48°25' W 123°23'0 0.0
2014-Sep-27 21:34N 48°25' W 123°23'0 0.0
2014-Sep-27 20:34N 48°25' W 123°23'0 0.0
2014-Sep-27 19:34N 48°25' W 123°23'0 0.0
2014-Sep-27 18:33N 48°25' W 123°23'0 0.0
2014-Sep-27 17:34N 48°25' W 123°23'0 0.0
2014-Sep-27 16:33N 48°25' W 123°23'0 0.0
2014-Sep-27 15:34N 48°25' W 123°23'0 0.0
2014-Sep-27 14:33N 48°25' W 123°23'0 0.0
2014-Sep-27 13:33N 48°25' W 123°23'0 0.0
2014-Sep-27 12:34N 48°25' W 123°23'0 0.0
2014-Sep-27 11:34N 48°25' W 123°23'0 0.0
2014-Sep-27 10:33N 48°25' W 123°23'0 0.0
2014-Sep-27 09:34N 48°25' W 123°23'0 0.0
2014-Sep-27 08:33N 48°25' W 123°23'0 0.0
2014-Sep-27 07:34N 48°25' W 123°23'0 0.0
2014-Sep-27 06:33N 48°25' W 123°23'0 0.0
2014-Sep-27 05:34N 48°25' W 123°23'0 0.0
2014-Sep-27 04:34N 48°25' W 123°23'0 0.0
2014-Sep-27 03:33N 48°25' W 123°23'0 0.0
2014-Sep-27 02:34N 48°25' W 123°23'0 0.0
2014-Sep-27 01:33N 48°25' W 123°23'0 0.0
2014-Sep-27 00:33N 48°25' W 123°23'0 0.0
2014-Sep-26 23:34N 48°25' W 123°23'0 0.0
2014-Sep-26 22:34N 48°25' W 123°23'0 0.0
2014-Sep-26 21:34N 48°25' W 123°23'0 0.0
2014-Sep-26 20:33N 48°25' W 123°23'0 0.0
2014-Sep-26 19:34N 48°25' W 123°23'0 0.0
2014-Sep-26 18:34N 48°25' W 123°23'0 0.0
2014-Sep-26 17:34N 48°25' W 123°23'0 0.0
2014-Sep-26 16:34N 48°25' W 123°23'0 0.0
2014-Sep-26 15:33N 48°25' W 123°23'0 0.0
2014-Sep-26 14:34N 48°25' W 123°23'0 0.0
2014-Sep-26 13:34N 48°25' W 123°23'0 0.0
2014-Sep-26 12:34N 48°25' W 123°23'0 0.0
2014-Sep-26 11:33N 48°25' W 123°23'0 0.0
2014-Sep-26 10:34N 48°25' W 123°23'0 0.0
2014-Sep-26 09:33N 48°25' W 123°23'0 0.0
2014-Sep-26 08:34N 48°25' W 123°23'0 0.0
2014-Sep-26 07:34N 48°25' W 123°23'0 0.0
2014-Sep-26 06:33N 48°25' W 123°23'0 0.0
2014-Sep-26 05:34N 48°25' W 123°23'0 0.0
2014-Sep-26 04:34N 48°25' W 123°23'0 0.0
2014-Sep-26 03:34N 48°25' W 123°23'0 0.0
2014-Sep-26 02:33N 48°25' W 123°23'0 0.0
2014-Sep-26 01:34N 48°25' W 123°23'0 0.0
2014-Sep-26 00:33N 48°25' W 123°23'0 0.0
2014-Sep-25 23:33N 48°25' W 123°23'0 0.0
2014-Sep-25 22:33N 48°25' W 123°23'0 0.0
2014-Sep-25 21:34N 48°25' W 123°23'0 0.0
2014-Sep-25 20:34N 48°25' W 123°23'0 0.0
2014-Sep-25 19:31N 48°25' W 123°23'0 0.0
2014-Sep-25 18:32N 48°25' W 123°23'0 0.0
2014-Sep-25 17:22N 48°25' W 123°23'0 0.0
2014-Sep-25 16:23N 48°25' W 123°23'0 0.0
2014-Sep-25 15:32N 48°25' W 123°23'0 0.4
2014-Sep-25 14:34N 48°25' W 123°23'2 2.3
2014-Sep-25 13:34N 48°22' W 123°22'2 1.9
2014-Sep-25 12:34N 48°24' W 123°23'1 0.8
2014-Sep-25 11:33N 48°25' W 123°23'0 0.0
2014-Sep-25 10:33N 48°25' W 123°23'0 0.0
2014-Sep-25 09:33N 48°25' W 123°23'0 0.0
2014-Sep-25 08:33N 48°25' W 123°23'0 0.0
2014-Sep-25 07:33N 48°25' W 123°23'0 0.0
2014-Sep-25 06:33N 48°25' W 123°23'0 0.0
2014-Sep-25 05:33N 48°25' W 123°23'0 0.0
2014-Sep-25 04:33N 48°25' W 123°23'0 0.0
2014-Sep-25 03:33N 48°25' W 123°23'0 0.0
2014-Sep-25 02:33N 48°25' W 123°23'0 0.0
2014-Sep-25 01:33N 48°25' W 123°23'0 0.0
2014-Sep-25 00:33N 48°25' W 123°23'0 0.0
2014-Sep-24 23:33N 48°25' W 123°23'0 0.0
2014-Sep-24 22:33N 48°25' W 123°23'0 0.0
2014-Sep-24 21:33N 48°25' W 123°23'0 0.0
2014-Sep-24 20:33N 48°25' W 123°23'0 0.0
2014-Sep-24 19:33N 48°25' W 123°23'0 0.0
2014-Sep-24 18:33N 48°25' W 123°23'1 0.6
2014-Sep-24 17:33N 48°25' W 123°23'1 0.6
2014-Sep-24 16:33N 48°25' W 123°23'0 0.0
2014-Sep-24 15:33N 48°25' W 123°23'0 0.0
2014-Sep-24 14:34N 48°25' W 123°23'0 0.0
2014-Sep-24 13:34N 48°25' W 123°23'0 0.0
2014-Sep-24 12:33N 48°25' W 123°23'0 0.0
2014-Sep-24 11:33N 48°25' W 123°23'0 0.0
2014-Sep-24 10:34N 48°25' W 123°23'0 0.0
2014-Sep-24 09:33N 48°25' W 123°23'0 0.0
2014-Sep-24 08:34N 48°25' W 123°23'0 0.0
2014-Sep-24 07:33N 48°25' W 123°23'2 2.1
2014-Sep-24 06:33N 48°23' W 123°23'2 2.0
2014-Sep-24 05:33N 48°25' W 123°23'0 0.0
2014-Sep-24 04:33N 48°25' W 123°23'0 0.0
2014-Sep-24 03:33N 48°25' W 123°23'0 0.4
2014-Sep-24 02:33N 48°25' W 123°24'0 0.4
2014-Sep-24 01:33N 48°25' W 123°23'0 0.0
2014-Sep-24 00:33N 48°25' W 123°23'0 0.0
2014-Sep-23 23:33N 48°25' W 123°23'0 0.0
2014-Sep-23 22:33N 48°25' W 123°23'0 0.0
2014-Sep-23 21:33N 48°25' W 123°23'2 2.0
2014-Sep-23 20:33N 48°23' W 123°22'2 2.0
2014-Sep-23 19:33N 48°25' W 123°23'2 1.7
2014-Sep-23 18:34N 48°23' W 123°22'2 1.7
2014-Sep-23 17:33N 48°25' W 123°23'0 0.0
2014-Sep-23 16:33N 48°25' W 123°23'0 0.0
2014-Sep-23 15:33N 48°25' W 123°23'0 0.0
2014-Sep-23 14:33N 48°25' W 123°23'0 0.0
2014-Sep-23 13:33N 48°25' W 123°23'0 0.0
2014-Sep-23 12:33N 48°25' W 123°23'0 0.0
2014-Sep-23 11:33N 48°25' W 123°23'0 0.0
2014-Sep-23 10:33N 48°25' W 123°23'2 2.0
2014-Sep-23 09:34N 48°23' W 123°23'2 2.0
2014-Sep-23 08:33N 48°25' W 123°23'0 0.0
2014-Sep-23 07:33N 48°25' W 123°23'0 0.0
2014-Sep-23 06:33N 48°25' W 123°23'1 1.4
2014-Sep-23 05:33N 48°24' W 123°22'1 1.4
2014-Sep-23 04:33N 48°25' W 123°23'0 0.0
2014-Sep-23 03:33N 48°25' W 123°23'2 2.0
2014-Sep-23 02:34N 48°23' W 123°23'1 1.3
2014-Sep-23 01:33N 48°24' W 123°23'1 0.6
2014-Sep-23 00:34N 48°25' W 123°24'0 0.4
2014-Sep-22 23:33N 48°25' W 123°23'0 0.0
2014-Sep-22 22:33N 48°25' W 123°23'0 0.0
2014-Sep-22 21:33N 48°25' W 123°23'0 0.0
2014-Sep-22 20:33N 48°25' W 123°23'0 0.0
2014-Sep-22 19:34N 48°25' W 123°23'0 0.0
2014-Sep-22 18:30N 48°25' W 123°23'0 0.0
2014-Sep-22 17:33N 48°25' W 123°23'0 0.0
2014-Sep-22 16:32N 48°25' W 123°23'0 0.0
2014-Sep-22 15:33N 48°25' W 123°23'0 0.0
2014-Sep-22 14:33N 48°25' W 123°23'0 0.0
2014-Sep-22 13:33N 48°25' W 123°23'0 0.0
2014-Sep-22 12:33N 48°25' W 123°23'0 0.0
2014-Sep-22 11:33N 48°25' W 123°23'0 0.0
2014-Sep-22 10:31N 48°25' W 123°23'0 0.0
2014-Sep-22 09:33N 48°25' W 123°23'0 0.0
2014-Sep-22 08:33N 48°25' W 123°23'0 0.0
2014-Sep-22 07:33N 48°25' W 123°23'0 0.0
2014-Sep-22 06:32N 48°25' W 123°23'0 0.0
2014-Sep-22 05:29N 48°25' W 123°23'0 0.0
2014-Sep-22 04:33N 48°25' W 123°23'0 0.0
2014-Sep-22 03:33N 48°25' W 123°23'0 0.0
2014-Sep-22 02:32N 48°25' W 123°23'0 0.0
2014-Sep-22 01:33N 48°25' W 123°23'0 0.0
2014-Sep-22 00:33N 48°25' W 123°23'0 0.0
2014-Sep-21 23:33N 48°25' W 123°23'0 0.0
2014-Sep-21 22:34N 48°25' W 123°23'0 0.0
2014-Sep-21 21:34N 48°25' W 123°23'0 0.0
2014-Sep-21 20:33N 48°25' W 123°23'0 0.0
2014-Sep-21 19:33N 48°25' W 123°23'0 0.0
2014-Sep-21 18:33N 48°25' W 123°23'0 0.0
2014-Sep-21 17:33N 48°25' W 123°23'0 0.0
2014-Sep-21 16:33N 48°25' W 123°23'0 0.0
2014-Sep-21 15:33N 48°25' W 123°23'0 0.0
2014-Sep-21 14:33N 48°25' W 123°23'0 0.0
2014-Sep-21 13:34N 48°25' W 123°23'0 0.0
2014-Sep-21 12:33N 48°25' W 123°23'0 0.0
2014-Sep-21 11:34N 48°25' W 123°23'0 0.0
2014-Sep-21 10:33N 48°25' W 123°23'0 0.0
2014-Sep-21 09:33N 48°25' W 123°23'0 0.0
2014-Sep-21 08:33N 48°25' W 123°23'0 0.0
2014-Sep-21 07:33N 48°25' W 123°23'0 0.0
2014-Sep-21 06:34N 48°25' W 123°23'0 0.0
2014-Sep-21 05:34N 48°25' W 123°23'0 0.0
2014-Sep-21 04:34N 48°25' W 123°23'0 0.0
2014-Sep-21 03:33N 48°25' W 123°23'0 0.0
2014-Sep-21 02:33N 48°25' W 123°23'0 0.0
2014-Sep-21 01:33N 48°25' W 123°23'0 0.0
2014-Sep-21 00:32N 48°25' W 123°23'0 0.0
2014-Sep-20 23:33N 48°25' W 123°23'0 0.0
2014-Sep-20 22:34N 48°25' W 123°23'0 0.0
2014-Sep-20 21:33N 48°25' W 123°23'0 0.0
2014-Sep-20 20:33N 48°25' W 123°23'0 0.0
2014-Sep-20 19:34N 48°25' W 123°23'0 0.0
2014-Sep-20 18:33N 48°25' W 123°23'0 0.0
2014-Sep-20 17:33N 48°25' W 123°23'0 0.0
2014-Sep-20 16:33N 48°25' W 123°23'0 0.0
2014-Sep-20 15:33N 48°25' W 123°23'  

Dump ship's entire track history